WZZ6QX EPGD-ESGG
Flight info
| Callsign | WZZ6QX |
|---|---|
| Flight time | 0h 55m |
| Altitude | 36000 |
| Route | VAPOS N133 PENOR DCT NILEN L617 ARQUS |
| Aircraft | A321/M-SDE1E2E3FGIJ1J4RWXY/LB1 |
Departure
| Time | 2026-05-07 14:40 |
|---|---|
| Airport | Gdańsk Lech Wałęsa Airport (EPGD) |
Arrival
| Time | 2026-05-07 15:35 |
|---|---|
| Airport | Göteborg Landvetter Airport (ESGG) |
| Time | Latitude | Longitude | Altitude | Speed | Heading |
|---|---|---|---|---|---|
| 2026-05-07 14:08 | 54.38119 | 18.46161 | 460 ft | 0 kts | 23° |
| 2026-05-07 14:12 | 54.38116 | 18.46158 | 460 ft | 0 kts | 203° |
| 2026-05-07 14:36 | 54.38112 | 18.46155 | 460 ft | 2 kts | 203° |
| 2026-05-07 14:36 | 54.38082 | 18.46132 | 460 ft | 7 kts | 208° |
| 2026-05-07 14:37 | 54.38080 | 18.46044 | 458 ft | 11 kts | 287° |
| 2026-05-07 14:37 | 54.38149 | 18.45728 | 455 ft | 11 kts | 272° |
| 2026-05-07 14:37 | 54.38126 | 18.45652 | 454 ft | 4 kts | 215° |
| 2026-05-07 14:38 | 54.38110 | 18.45637 | 455 ft | 0 kts | 207° |
| 2026-05-07 14:38 | 54.38094 | 18.45624 | 454 ft | 5 kts | 205° |
| 2026-05-07 14:38 | 54.38050 | 18.45589 | 455 ft | 9 kts | 205° |
| 2026-05-07 14:39 | 54.38020 | 18.45595 | 456 ft | 5 kts | 141° |
| 2026-05-07 14:39 | 54.37989 | 18.45692 | 456 ft | 21 kts | 112° |
| 2026-05-07 14:39 | 54.37799 | 18.46451 | 457 ft | 118 kts | 113° |
| 2026-05-07 14:39 | 54.37393 | 18.48059 | 932 ft | 151 kts | 107° |
| 2026-05-07 14:40 | 54.36985 | 18.49709 | 2055 ft | 150 kts | 106° |
| 2026-05-07 14:40 | 54.36578 | 18.51368 | 3075 ft | 152 kts | 106° |
| 2026-05-07 14:40 | 54.36167 | 18.53036 | 4117 ft | 153 kts | 107° |
| 2026-05-07 14:40 | 54.35730 | 18.54837 | 4727 ft | 175 kts | 107° |
| 2026-05-07 14:41 | 54.35233 | 18.56867 | 5237 ft | 195 kts | 109° |
| 2026-05-07 14:41 | 54.34682 | 18.59142 | 5659 ft | 220 kts | 109° |
| 2026-05-07 14:41 | 54.34052 | 18.61693 | 6300 ft | 241 kts | 110° |
| 2026-05-07 14:41 | 54.33461 | 18.64426 | 7055 ft | 246 kts | 96° |
| 2026-05-07 14:42 | 54.33703 | 18.67280 | 8067 ft | 247 kts | 60° |
| 2026-05-07 14:42 | 54.34898 | 18.69347 | 9074 ft | 249 kts | 27° |
| 2026-05-07 14:42 | 54.36514 | 18.70564 | 9931 ft | 264 kts | 11° |
| 2026-05-07 14:42 | 54.38403 | 18.70589 | 10432 ft | 284 kts | 343° |
| 2026-05-07 14:43 | 54.40173 | 18.68893 | 10894 ft | 306 kts | 314° |
| 2026-05-07 14:43 | 54.41616 | 18.66047 | 11447 ft | 324 kts | 307° |
| 2026-05-07 14:43 | 54.43032 | 18.62980 | 12356 ft | 331 kts | 305° |
| 2026-05-07 14:43 | 54.44454 | 18.59819 | 13320 ft | 337 kts | 305° |
| 2026-05-07 14:44 | 54.45898 | 18.56601 | 14207 ft | 344 kts | 305° |
| 2026-05-07 14:44 | 54.47378 | 18.53327 | 15048 ft | 349 kts | 305° |
| 2026-05-07 14:44 | 54.48888 | 18.50019 | 15950 ft | 354 kts | 306° |
| 2026-05-07 14:44 | 54.50422 | 18.46677 | 16870 ft | 358 kts | 306° |
| 2026-05-07 14:45 | 54.51981 | 18.43287 | 17762 ft | 363 kts | 305° |
| 2026-05-07 14:45 | 54.53560 | 18.39858 | 18606 ft | 368 kts | 305° |
| 2026-05-07 14:45 | 54.55160 | 18.36382 | 19383 ft | 373 kts | 305° |
| 2026-05-07 14:45 | 54.56779 | 18.32858 | 20174 ft | 377 kts | 305° |
| 2026-05-07 14:46 | 54.58412 | 18.29289 | 20980 ft | 381 kts | 305° |
| 2026-05-07 14:46 | 54.60061 | 18.25676 | 21767 ft | 386 kts | 305° |
| 2026-05-07 14:46 | 54.61730 | 18.22017 | 22559 ft | 390 kts | 305° |
| 2026-05-07 14:46 | 54.63396 | 18.18361 | 23337 ft | 395 kts | 306° |
| 2026-05-07 14:47 | 54.65102 | 18.14612 | 24024 ft | 399 kts | 305° |
| 2026-05-07 14:47 | 54.66826 | 18.10821 | 24651 ft | 403 kts | 305° |
| 2026-05-07 14:47 | 54.68564 | 18.06992 | 25292 ft | 407 kts | 305° |
| 2026-05-07 14:47 | 54.70348 | 18.03168 | 25911 ft | 412 kts | 310° |
| 2026-05-07 14:48 | 54.72596 | 18.00016 | 26488 ft | 423 kts | 326° |
| 2026-05-07 14:48 | 54.75211 | 17.97599 | 27079 ft | 428 kts | 329° |
| 2026-05-07 14:48 | 54.77871 | 17.95216 | 27650 ft | 432 kts | 329° |
| 2026-05-07 14:48 | 54.80559 | 17.92821 | 28219 ft | 437 kts | 329° |
| 2026-05-07 14:49 | 54.83275 | 17.90399 | 28772 ft | 441 kts | 329° |
| 2026-05-07 14:49 | 54.86016 | 17.87948 | 29327 ft | 445 kts | 328° |
| 2026-05-07 14:49 | 54.88780 | 17.85465 | 29875 ft | 449 kts | 328° |
| 2026-05-07 14:49 | 54.91564 | 17.82950 | 30357 ft | 453 kts | 328° |
| 2026-05-07 14:50 | 54.94374 | 17.80402 | 30800 ft | 457 kts | 328° |
| 2026-05-07 14:50 | 54.97207 | 17.77830 | 31244 ft | 461 kts | 328° |
| 2026-05-07 14:50 | 55.00060 | 17.75238 | 31692 ft | 465 kts | 328° |
| 2026-05-07 14:50 | 55.02929 | 17.72627 | 32329 ft | 464 kts | 328° |
| 2026-05-07 14:51 | 55.05652 | 17.69688 | 32980 ft | 456 kts | 316° |
| 2026-05-07 14:51 | 55.07838 | 17.65786 | 33587 ft | 447 kts | 302° |
| 2026-05-07 14:51 | 55.09667 | 17.61423 | 34204 ft | 445 kts | 301° |
| 2026-05-07 14:51 | 55.11477 | 17.57053 | 34735 ft | 443 kts | 301° |
| 2026-05-07 14:52 | 55.12482 | 17.54616 | 35043 ft | 443 kts | 301° |
| 2026-05-07 14:53 | 55.14019 | 17.50879 | 35341 ft | 444 kts | 301° |
| 2026-05-07 14:54 | 55.15820 | 17.46493 | 35853 ft | 444 kts | 301° |
| 2026-05-07 14:54 | 55.17620 | 17.42107 | 36049 ft | 444 kts | 301° |
| 2026-05-07 14:54 | 55.21190 | 17.33438 | 36096 ft | 436 kts | 301° |
| 2026-05-07 14:55 | 55.24722 | 17.24822 | 36091 ft | 435 kts | 301° |
| 2026-05-07 14:55 | 55.28239 | 17.16180 | 36098 ft | 435 kts | 301° |
| 2026-05-07 14:56 | 55.31750 | 17.07519 | 36098 ft | 435 kts | 301° |
| 2026-05-07 14:56 | 55.35255 | 16.98844 | 36109 ft | 435 kts | 301° |
| 2026-05-07 14:57 | 55.38763 | 16.90155 | 36108 ft | 436 kts | 301° |
| 2026-05-07 14:57 | 55.42266 | 16.81453 | 36136 ft | 436 kts | 302° |
| 2026-05-07 14:58 | 55.45742 | 16.72794 | 36132 ft | 435 kts | 302° |
| 2026-05-07 14:58 | 55.49224 | 16.64078 | 36131 ft | 434 kts | 301° |
| 2026-05-07 14:59 | 55.52688 | 16.55353 | 36125 ft | 434 kts | 301° |
| 2026-05-07 14:59 | 55.56147 | 16.46625 | 36130 ft | 434 kts | 301° |
| 2026-05-07 15:00 | 55.59602 | 16.37880 | 36126 ft | 434 kts | 301° |
| 2026-05-07 15:00 | 55.63050 | 16.29118 | 36125 ft | 434 kts | 301° |
| 2026-05-07 15:01 | 55.66498 | 16.20348 | 36123 ft | 434 kts | 301° |
| 2026-05-07 15:01 | 55.69931 | 16.11560 | 36127 ft | 434 kts | 301° |
| 2026-05-07 15:02 | 55.73357 | 16.02757 | 36126 ft | 434 kts | 301° |
| 2026-05-07 15:02 | 55.76782 | 15.93941 | 36127 ft | 434 kts | 301° |
| 2026-05-07 15:03 | 55.80196 | 15.85106 | 36136 ft | 434 kts | 301° |
| 2026-05-07 15:03 | 55.83599 | 15.76246 | 36143 ft | 434 kts | 302° |
| 2026-05-07 15:04 | 55.86999 | 15.67376 | 36141 ft | 434 kts | 302° |
| 2026-05-07 15:04 | 55.90396 | 15.58499 | 36137 ft | 433 kts | 301° |
| 2026-05-07 15:05 | 55.93781 | 15.49622 | 36134 ft | 433 kts | 301° |
| 2026-05-07 15:05 | 55.97138 | 15.40796 | 36139 ft | 433 kts | 302° |
| 2026-05-07 15:06 | 56.00511 | 15.31895 | 36127 ft | 432 kts | 302° |
| 2026-05-07 15:06 | 56.03869 | 15.22985 | 36125 ft | 432 kts | 302° |
| 2026-05-07 15:07 | 56.07220 | 15.14062 | 36133 ft | 432 kts | 302° |
| 2026-05-07 15:07 | 56.10558 | 15.05124 | 36129 ft | 432 kts | 302° |
| 2026-05-07 15:08 | 56.13895 | 14.96164 | 36132 ft | 432 kts | 302° |
| 2026-05-07 15:08 | 56.17227 | 14.87200 | 36131 ft | 432 kts | 302° |
| 2026-05-07 15:09 | 56.20552 | 14.78226 | 36126 ft | 432 kts | 302° |
| 2026-05-07 15:09 | 56.23867 | 14.69227 | 36128 ft | 432 kts | 302° |
| 2026-05-07 15:10 | 56.27178 | 14.60224 | 36126 ft | 431 kts | 302° |
| 2026-05-07 15:10 | 56.30469 | 14.51214 | 36122 ft | 430 kts | 302° |
| 2026-05-07 15:11 | 56.33754 | 14.42203 | 36124 ft | 430 kts | 302° |
| 2026-05-07 15:11 | 56.37031 | 14.33206 | 36106 ft | 429 kts | 302° |
| 2026-05-07 15:12 | 56.40268 | 14.24256 | 36111 ft | 429 kts | 302° |
| 2026-05-07 15:12 | 56.43518 | 14.15224 | 36090 ft | 429 kts | 302° |
| 2026-05-07 15:13 | 56.45144 | 14.10698 | 35792 ft | 429 kts | 302° |
| 2026-05-07 15:13 | 56.46767 | 14.06177 | 35216 ft | 428 kts | 302° |
| 2026-05-07 15:13 | 56.48385 | 14.01665 | 34603 ft | 428 kts | 303° |
| 2026-05-07 15:13 | 56.50002 | 13.97150 | 33991 ft | 427 kts | 303° |
| 2026-05-07 15:14 | 56.51613 | 13.92637 | 33289 ft | 426 kts | 303° |
| 2026-05-07 15:14 | 56.53217 | 13.88124 | 32513 ft | 426 kts | 303° |
| 2026-05-07 15:14 | 56.54822 | 13.83602 | 31705 ft | 427 kts | 303° |
| 2026-05-07 15:14 | 56.56431 | 13.79072 | 30866 ft | 428 kts | 303° |
| 2026-05-07 15:15 | 56.58046 | 13.74517 | 30012 ft | 430 kts | 302° |
| 2026-05-07 15:15 | 56.59652 | 13.69975 | 29266 ft | 426 kts | 302° |
| 2026-05-07 15:15 | 56.61241 | 13.65477 | 28558 ft | 421 kts | 302° |
| 2026-05-07 15:15 | 56.63040 | 13.61331 | 27847 ft | 417 kts | 315° |
| 2026-05-07 15:16 | 56.65255 | 13.57971 | 27166 ft | 413 kts | 320° |
| 2026-05-07 15:16 | 56.67486 | 13.54730 | 26493 ft | 409 kts | 320° |
| 2026-05-07 15:16 | 56.69692 | 13.51511 | 25829 ft | 405 kts | 320° |
| 2026-05-07 15:16 | 56.71881 | 13.48329 | 25177 ft | 401 kts | 320° |
| 2026-05-07 15:17 | 56.74050 | 13.45179 | 24553 ft | 397 kts | 320° |
| 2026-05-07 15:17 | 56.76202 | 13.42052 | 24056 ft | 395 kts | 319° |
| 2026-05-07 15:17 | 56.78350 | 13.38927 | 23580 ft | 394 kts | 319° |
| 2026-05-07 15:17 | 56.80483 | 13.35817 | 23021 ft | 391 kts | 319° |
| 2026-05-07 15:18 | 56.82598 | 13.32727 | 22476 ft | 388 kts | 319° |
| 2026-05-07 15:18 | 56.84695 | 13.29657 | 21939 ft | 385 kts | 319° |
| 2026-05-07 15:18 | 56.86076 | 13.27632 | 21588 ft | 383 kts | 319° |
| 2026-05-07 15:18 | 56.88140 | 13.24603 | 21117 ft | 377 kts | 319° |
| 2026-05-07 15:19 | 56.90161 | 13.21637 | 20720 ft | 369 kts | 319° |
| 2026-05-07 15:19 | 56.92139 | 13.18732 | 20338 ft | 360 kts | 319° |
| 2026-05-07 15:19 | 56.94068 | 13.15893 | 19962 ft | 352 kts | 319° |
| 2026-05-07 15:19 | 56.95955 | 13.13114 | 19584 ft | 344 kts | 319° |
| 2026-05-07 15:20 | 56.98416 | 13.09475 | 19115 ft | 335 kts | 319° |
| 2026-05-07 15:20 | 56.99609 | 13.07705 | 18872 ft | 332 kts | 319° |
| 2026-05-07 15:20 | 57.01395 | 13.05045 | 18532 ft | 329 kts | 319° |
| 2026-05-07 15:20 | 57.03166 | 13.02406 | 18127 ft | 327 kts | 319° |
| 2026-05-07 15:21 | 57.04929 | 12.99783 | 17717 ft | 325 kts | 319° |
| 2026-05-07 15:21 | 57.06683 | 12.97174 | 17317 ft | 323 kts | 319° |
| 2026-05-07 15:21 | 57.08479 | 12.94729 | 16910 ft | 321 kts | 326° |
| 2026-05-07 15:21 | 57.10455 | 12.92819 | 16539 ft | 321 kts | 335° |
| 2026-05-07 15:22 | 57.12568 | 12.91498 | 16152 ft | 321 kts | 343° |
| 2026-05-07 15:22 | 57.14734 | 12.90526 | 15770 ft | 320 kts | 344° |
| 2026-05-07 15:22 | 57.16886 | 12.89551 | 15387 ft | 317 kts | 343° |
| 2026-05-07 15:22 | 57.19024 | 12.88576 | 15025 ft | 316 kts | 343° |
| 2026-05-07 15:23 | 57.21147 | 12.87604 | 14682 ft | 314 kts | 343° |
| 2026-05-07 15:23 | 57.23256 | 12.86638 | 14338 ft | 311 kts | 343° |
| 2026-05-07 15:23 | 57.25352 | 12.85679 | 13998 ft | 310 kts | 343° |
| 2026-05-07 15:23 | 57.27438 | 12.84721 | 13667 ft | 308 kts | 343° |
| 2026-05-07 15:24 | 57.29517 | 12.83769 | 13303 ft | 307 kts | 343° |
| 2026-05-07 15:24 | 57.31585 | 12.82823 | 12949 ft | 306 kts | 344° |
| 2026-05-07 15:24 | 57.33718 | 12.81841 | 12599 ft | 322 kts | 344° |
| 2026-05-07 15:24 | 57.35906 | 12.80828 | 12268 ft | 325 kts | 344° |
| 2026-05-07 15:25 | 57.38098 | 12.79813 | 11924 ft | 324 kts | 344° |
| 2026-05-07 15:25 | 57.40282 | 12.78802 | 11560 ft | 323 kts | 344° |
| 2026-05-07 15:25 | 57.42452 | 12.77797 | 11183 ft | 321 kts | 344° |
| 2026-05-07 15:25 | 57.44609 | 12.76799 | 10773 ft | 319 kts | 344° |
| 2026-05-07 15:26 | 57.46754 | 12.75807 | 10377 ft | 317 kts | 344° |
| 2026-05-07 15:26 | 57.48887 | 12.74820 | 9948 ft | 315 kts | 344° |
| 2026-05-07 15:26 | 57.51006 | 12.73835 | 9499 ft | 312 kts | 344° |
| 2026-05-07 15:26 | 57.53079 | 12.72870 | 9046 ft | 310 kts | 344° |
| 2026-05-07 15:27 | 57.55158 | 12.71898 | 8593 ft | 306 kts | 345° |
| 2026-05-07 15:27 | 57.57227 | 12.70934 | 8153 ft | 307 kts | 344° |
| 2026-05-07 15:27 | 57.59298 | 12.69969 | 7712 ft | 306 kts | 345° |
| 2026-05-07 15:27 | 57.61363 | 12.69009 | 7288 ft | 305 kts | 345° |
| 2026-05-07 15:28 | 57.63418 | 12.68047 | 6862 ft | 304 kts | 345° |
| 2026-05-07 15:28 | 57.65439 | 12.66906 | 6432 ft | 303 kts | 339° |
| 2026-05-07 15:28 | 57.67409 | 12.65543 | 5984 ft | 301 kts | 339° |
| 2026-05-07 15:28 | 57.69366 | 12.64197 | 5529 ft | 299 kts | 340° |
| 2026-05-07 15:29 | 57.71300 | 12.62877 | 5156 ft | 292 kts | 340° |
| 2026-05-07 15:29 | 57.73174 | 12.61601 | 4873 ft | 282 kts | 340° |
| 2026-05-07 15:29 | 57.74989 | 12.60362 | 4582 ft | 274 kts | 340° |
| 2026-05-07 15:29 | 57.76754 | 12.59154 | 4298 ft | 267 kts | 340° |
| 2026-05-07 15:30 | 57.78470 | 12.57968 | 4039 ft | 260 kts | 337° |
| 2026-05-07 15:30 | 57.80034 | 12.56347 | 3780 ft | 255 kts | 326° |
| 2026-05-07 15:30 | 57.81502 | 12.54541 | 3527 ft | 250 kts | 326° |
| 2026-05-07 15:30 | 57.82719 | 12.52319 | 3270 ft | 243 kts | 301° |
| 2026-05-07 15:31 | 57.83207 | 12.49385 | 3091 ft | 234 kts | 273° |
| 2026-05-07 15:31 | 57.82999 | 12.46443 | 2936 ft | 224 kts | 255° |
| 2026-05-07 15:31 | 57.82322 | 12.43867 | 2752 ft | 219 kts | 237° |
| 2026-05-07 15:31 | 57.81277 | 12.41868 | 2597 ft | 219 kts | 219° |
| 2026-05-07 15:32 | 57.79943 | 12.40476 | 2506 ft | 220 kts | 207° |
| 2026-05-07 15:32 | 57.78567 | 12.39216 | 2506 ft | 218 kts | 208° |
| 2026-05-07 15:32 | 57.77260 | 12.38020 | 2500 ft | 202 kts | 209° |
| 2026-05-07 15:32 | 57.76029 | 12.36891 | 2364 ft | 194 kts | 210° |
| 2026-05-07 15:33 | 57.74842 | 12.35802 | 2133 ft | 181 kts | 208° |
| 2026-05-07 15:33 | 57.73764 | 12.34817 | 1887 ft | 165 kts | 208° |
| 2026-05-07 15:33 | 57.72776 | 12.33913 | 1708 ft | 153 kts | 209° |
| 2026-05-07 15:33 | 57.71831 | 12.33048 | 1464 ft | 151 kts | 211° |
| 2026-05-07 15:34 | 57.70898 | 12.32194 | 1272 ft | 147 kts | 210° |
| 2026-05-07 15:34 | 57.69994 | 12.31369 | 1076 ft | 143 kts | 212° |
| 2026-05-07 15:34 | 57.69107 | 12.30560 | 881 ft | 140 kts | 210° |
| 2026-05-07 15:34 | 57.68237 | 12.29762 | 682 ft | 139 kts | 210° |
| 2026-05-07 15:35 | 57.67374 | 12.28977 | 545 ft | 137 kts | 209° |
| 2026-05-07 15:35 | 57.66636 | 12.28300 | 514 ft | 100 kts | 206° |
| 2026-05-07 15:35 | 57.66150 | 12.27857 | 509 ft | 50 kts | 205° |
| 2026-05-07 15:35 | 57.65871 | 12.27672 | 506 ft | 39 kts | 186° |
| 2026-05-07 15:36 | 57.65718 | 12.27755 | 505 ft | 17 kts | 115° |
| 2026-05-07 15:36 | 57.65787 | 12.27875 | 506 ft | 16 kts | 25° |
| 2026-05-07 15:36 | 57.65864 | 12.27943 | 507 ft | 13 kts | 26° |
| 2026-05-07 15:36 | 57.65958 | 12.28030 | 508 ft | 17 kts | 26° |
| 2026-05-07 15:37 | 57.66069 | 12.28130 | 509 ft | 18 kts | 25° |
| 2026-05-07 15:37 | 57.66192 | 12.28242 | 510 ft | 21 kts | 26° |
| 2026-05-07 15:37 | 57.66296 | 12.28336 | 511 ft | 11 kts | 27° |
| 2026-05-07 15:37 | 57.66376 | 12.28410 | 512 ft | 15 kts | 26° |
| 2026-05-07 15:38 | 57.66480 | 12.28505 | 512 ft | 19 kts | 26° |
| 2026-05-07 15:38 | 57.66607 | 12.28621 | 512 ft | 22 kts | 26° |
| 2026-05-07 15:38 | 57.66748 | 12.28745 | 513 ft | 18 kts | 22° |
| 2026-05-07 15:38 | 57.66824 | 12.28840 | 513 ft | 14 kts | 61° |
| 2026-05-07 15:39 | 57.66802 | 12.28997 | 516 ft | 14 kts | 115° |
| 2026-05-07 15:39 | 57.66761 | 12.29147 | 516 ft | 10 kts | 121° |
| 2026-05-07 15:39 | 57.66739 | 12.29227 | 516 ft | 1 kts | 116° |
| 2026-05-07 15:39 | 57.66731 | 12.29255 | 516 ft | 1 kts | 116° |
| 2026-05-07 15:40 | 57.66730 | 12.29260 | 516 ft | 0 kts | 116° |